To NAV CANADA Home Page Login to a new session Search on AWWS site Feedback and Comments Disclaimer Vers la page française équivalente Tips FAQ What's new on the site To the Forecasts and Observations / NOTAM section To "File a Flight Plan" website Publications and other links Update of the User's profile FIC Telephone Numbers My Weather Data Folder Route Weather Data Regional Weather Data Local Weather Data To the Forecasts and Observations / NOTAM section
Request Generated 03/23/2017 at 00:14:00 UTC . Weather information available at that time is displayed.

METAR/TAF

HIGH LEVEL/AB    (show WxCam)

METAR CYOJ 230000Z 36013KT 15SM FEW150 SCT260 M01/M12 A2979 RMK
AC1CI3 AC TR SLP113=
METAR CYOJ 222300Z 35010G17KT 15SM FEW150 SCT260 01/M10 A2977 RMK
AC1CI3 AC TR SLP107=
METAR CYOJ 222200Z 34014KT 15SM FEW150 FEW260 01/M10 A2977 RMK AC1CI2
AC TR SLP105=

TAF CYOJ 221843Z 2219/2307 VRB03KT P6SM SCT040 BKN080
FM230100 35005KT P6SM BKN040 TEMPO 2301/2307 P6SM -SN BKN020
OVC040
RMK NXT FCST BY 230100Z=
Your time UTC time
Weather data provided by Environment Canada and NAV CANADA